Terminal Aerodrome Forecast
Issued by NWS Bismarck, ND

Home | Current Version | Previous Version | Graphics & Text | Print | Product List | Glossary On
Versions: 1 2 3 4 5 6 7 8 9 10 11 12 13 14 15 16
223
FTUS43 KBIS 261723
TAFISN
TAF
KISN 261723Z 2618/2718 14011KT P6SM SKC
     FM270500 14008KT P6SM SCT250 WS020/18040KT
     FM271100 16008KT P6SM FEW200=

USA.gov is the U.S. government's official web portal to all federal, state and local government web resources and services.